createdAt,value
2018-07-13T00:00:51.544Z,10.23
2018-07-13T00:03:23.078Z,10.53
2018-07-13T00:05:54.023Z,10.30
2018-07-13T00:08:25.412Z,9.67
2018-07-13T00:10:56.711Z,10.17
2018-07-13T00:13:27.769Z,10.27
2018-07-13T00:16:03.843Z,10.67
2018-07-13T00:18:37.454Z,9.47
2018-07-13T00:21:08.779Z,10.33
2018-07-13T00:23:39.893Z,11.57
2018-07-13T00:26:10.794Z,9.50
2018-07-13T00:28:41.980Z,9.87
2018-07-13T00:31:13.158Z,9.80
2018-07-13T00:33:44.739Z,9.30
2018-07-13T00:36:16.599Z,10.13
2018-07-13T00:38:48.030Z,8.93
2018-07-13T00:41:19.346Z,9.30
2018-07-13T00:43:50.876Z,9.63
2018-07-13T00:46:22.528Z,9.90
2018-07-13T00:48:54.464Z,9.73
2018-07-13T00:51:25.801Z,11.03
2018-07-13T00:53:57.244Z,10.20
2018-07-13T00:56:28.443Z,9.30
2018-07-13T00:59:00.424Z,9.67
2018-07-13T01:01:31.607Z,9.50
2018-07-13T01:04:02.973Z,10.40
2018-07-13T01:06:34.117Z,9.93
2018-07-13T01:09:06.733Z,10.23
2018-07-13T01:11:39.102Z,9.00
2018-07-13T01:14:10.248Z,8.73
2018-07-13T01:16:41.282Z,10.03
2018-07-13T01:19:13.127Z,9.37
2018-07-13T01:21:44.631Z,9.90
2018-07-13T01:24:15.847Z,8.70
2018-07-13T01:26:46.839Z,10.67
2018-07-13T01:29:18.793Z,9.80
2018-07-13T01:31:50.000Z,10.00
2018-07-13T01:34:21.074Z,9.77
2018-07-13T01:36:52.556Z,9.50
2018-07-13T01:39:23.797Z,9.60
2018-07-13T01:41:55.839Z,9.37
2018-07-13T01:44:26.878Z,9.60
2018-07-13T01:46:58.337Z,9.67
2018-07-13T01:49:30.607Z,9.50
2018-07-13T01:52:03.095Z,9.00
2018-07-13T01:54:35.130Z,9.10
2018-07-13T01:57:06.053Z,10.13
2018-07-13T01:59:37.141Z,9.53
2018-07-13T02:02:08.213Z,9.30
2018-07-13T02:04:40.270Z,9.80
2018-07-13T02:07:12.842Z,9.70
2018-07-13T02:09:44.881Z,9.27
2018-07-13T02:12:21.011Z,10.23
2018-07-13T02:14:52.570Z,9.97
2018-07-13T02:17:23.700Z,10.10
2018-07-13T02:19:55.696Z,9.90
2018-07-13T02:22:26.792Z,10.47
2018-07-13T02:24:59.386Z,9.37
2018-07-13T02:27:30.567Z,9.77
2018-07-13T02:30:03.126Z,9.97
2018-07-13T02:32:34.526Z,9.80
2018-07-13T02:35:05.862Z,9.83
2018-07-13T02:37:36.920Z,9.70
2018-07-13T02:40:08.207Z,10.13
2018-07-13T02:42:39.508Z,10.20
2018-07-13T02:45:11.486Z,9.43
2018-07-13T02:47:42.778Z,9.60
2018-07-13T02:50:14.031Z,10.70
2018-07-13T02:52:45.267Z,9.83
2018-07-13T02:55:16.249Z,9.83
2018-07-13T02:57:48.511Z,10.23
2018-07-13T03:00:21.618Z,11.00
2018-07-13T03:02:52.769Z,10.20
2018-07-13T03:05:24.068Z,10.17
2018-07-13T03:07:55.218Z,10.13
2018-07-13T03:10:26.467Z,10.30
2018-07-13T03:12:57.526Z,9.73
2018-07-13T03:15:28.592Z,10.47
2018-07-13T03:17:59.802Z,9.67
2018-07-13T03:20:31.999Z,10.43
2018-07-13T03:23:02.990Z,9.90
2018-07-13T03:25:34.364Z,9.70
2018-07-13T03:28:05.490Z,10.40
2018-07-13T03:30:37.323Z,10.47
2018-07-13T03:33:08.480Z,9.40
2018-07-13T03:35:39.367Z,11.00
2018-07-13T03:38:10.615Z,10.13
2018-07-13T03:40:42.267Z,9.90
2018-07-13T03:43:13.272Z,10.43
2018-07-13T03:45:44.498Z,10.20
2018-07-13T03:48:15.747Z,11.10
2018-07-13T03:50:47.596Z,10.33
2018-07-13T03:53:18.711Z,10.57
2018-07-13T03:55:49.823Z,10.20
2018-07-13T03:58:21.373Z,10.07
2018-07-13T04:00:53.967Z,10.90
2018-07-13T04:03:25.203Z,10.23
2018-07-13T04:05:57.893Z,10.70
2018-07-13T04:08:29.035Z,11.20
2018-07-13T04:11:00.345Z,11.40
2018-07-13T04:13:32.661Z,11.37
2018-07-13T04:16:03.858Z,11.60
2018-07-13T04:18:35.066Z,11.33
2018-07-13T04:21:06.632Z,11.70
2018-07-13T04:23:37.845Z,11.13
2018-07-13T04:26:08.787Z,12.20
2018-07-13T04:28:39.899Z,12.30
2018-07-13T04:31:12.313Z,12.60
2018-07-13T04:33:43.496Z,12.47
2018-07-13T04:36:16.811Z,12.30
2018-07-13T04:38:48.706Z,11.80
2018-07-13T04:41:19.823Z,12.20
2018-07-13T04:43:52.245Z,12.13
2018-07-13T04:46:24.710Z,11.90
2018-07-13T04:48:57.195Z,11.33
2018-07-13T04:51:28.736Z,12.67
2018-07-13T04:54:00.035Z,12.57
2018-07-13T04:56:32.553Z,12.00
2018-07-13T04:59:07.929Z,11.70
2018-07-13T05:01:40.240Z,12.30
2018-07-13T05:04:11.708Z,12.77
2018-07-13T05:06:43.506Z,12.60
2018-07-13T05:09:14.811Z,11.83
2018-07-13T05:11:46.097Z,12.13
2018-07-13T05:14:17.372Z,12.20
2018-07-13T05:16:48.919Z,13.07
2018-07-13T05:19:21.873Z,14.17
2018-07-13T05:21:54.033Z,11.93
2018-07-13T05:24:28.563Z,12.10
2018-07-13T05:27:02.440Z,12.13
2018-07-13T05:29:33.821Z,11.30
2018-07-13T05:32:06.536Z,11.97
2018-07-13T05:34:37.815Z,11.40
2018-07-13T05:37:09.114Z,11.07
2018-07-13T05:39:40.453Z,11.13
2018-07-13T05:42:12.421Z,11.90
2018-07-13T05:44:44.671Z,11.33
2018-07-13T05:47:16.098Z,10.70
2018-07-13T05:49:47.622Z,11.30
2018-07-13T05:52:20.285Z,10.90
2018-07-13T05:54:52.555Z,11.20
2018-07-13T05:57:24.753Z,10.40
2018-07-13T05:59:56.233Z,10.80
2018-07-13T06:02:28.920Z,10.40
2018-07-13T06:05:02.594Z,11.53
2018-07-13T06:07:34.828Z,10.87
2018-07-13T06:10:06.152Z,10.50
2018-07-13T06:12:37.447Z,10.67
2018-07-13T06:15:09.820Z,11.30
2018-07-13T06:17:47.139Z,11.10
2018-07-13T06:20:18.387Z,9.70
2018-07-13T06:22:50.290Z,11.70
2018-07-13T06:25:22.563Z,10.90
2018-07-13T06:27:54.023Z,10.73
2018-07-13T06:30:25.247Z,11.57
2018-07-13T06:32:58.217Z,12.03
2018-07-13T06:35:29.365Z,11.13
2018-07-13T06:38:00.420Z,12.03
2018-07-13T06:40:32.949Z,11.10
2018-07-13T06:43:04.207Z,11.07
2018-07-13T06:45:40.745Z,10.50
2018-07-13T06:48:13.060Z,10.50
2018-07-13T06:50:44.400Z,10.48
2018-07-13T06:53:18.120Z,9.80
2018-07-13T06:55:57.098Z,10.82
2018-07-13T06:58:39.046Z,10.97
2018-07-13T07:01:10.707Z,11.05
2018-07-13T07:04:52.115Z,11.70
2018-07-13T07:07:25.904Z,11.70
2018-07-13T07:10:00.844Z,11.53
2018-07-13T07:13:11.619Z,12.07
2018-07-13T07:15:42.769Z,11.53
2018-07-13T07:18:13.935Z,11.83
2018-07-13T07:20:45.136Z,11.40
2018-07-13T07:23:16.741Z,11.13
2018-07-13T07:25:49.128Z,11.70
2018-07-13T07:28:20.285Z,11.67
2018-07-13T07:30:52.450Z,11.33
2018-07-13T07:33:24.112Z,10.90
2018-07-13T07:35:56.038Z,11.33
2018-07-13T07:38:27.937Z,10.67
2018-07-13T07:41:00.900Z,11.77
2018-07-13T07:43:33.141Z,10.97
2018-07-13T07:46:04.454Z,11.97
2018-07-13T07:48:35.830Z,11.00
2018-07-13T07:51:08.547Z,11.23
2018-07-13T07:53:39.845Z,11.13
2018-07-13T07:56:11.505Z,12.23
2018-07-13T07:58:43.379Z,10.53
2018-07-13T08:01:16.041Z,10.57
2018-07-13T08:03:47.173Z,11.10
2018-07-13T08:06:18.566Z,12.17
2018-07-13T08:08:49.844Z,11.80
2018-07-13T08:11:21.214Z,12.47
2018-07-13T08:13:52.760Z,12.03
2018-07-13T08:16:24.324Z,13.00
2018-07-13T08:18:56.091Z,13.13
2018-07-13T08:21:28.477Z,12.93
2018-07-13T08:23:59.870Z,14.67
2018-07-13T08:26:33.991Z,12.93
2018-07-13T08:29:06.000Z,13.33
2018-07-13T08:31:38.208Z,13.47
2018-07-13T08:34:09.485Z,14.23
2018-07-13T08:36:40.778Z,14.57
2018-07-13T08:39:12.201Z,14.53
2018-07-13T08:41:43.416Z,14.70
2018-07-13T08:44:15.059Z,14.70
2018-07-13T08:46:46.607Z,14.80
2018-07-13T08:49:17.716Z,14.50
2018-07-13T08:51:50.372Z,16.60
2018-07-13T08:54:24.545Z,16.27
2018-07-13T08:56:56.363Z,15.63
2018-07-13T08:59:27.558Z,16.30
2018-07-13T09:02:01.995Z,17.07
2018-07-13T09:04:33.885Z,16.37
2018-07-13T09:07:05.547Z,15.83
2018-07-13T09:09:36.795Z,15.00
2018-07-13T09:12:08.527Z,16.40
2018-07-13T09:14:39.931Z,16.53
2018-07-13T09:17:12.252Z,15.90
2018-07-13T09:19:43.593Z,17.97
2018-07-13T09:22:15.228Z,17.37
2018-07-13T09:24:46.705Z,18.07
2018-07-13T09:27:20.645Z,16.57
2018-07-13T09:29:51.635Z,16.23
2018-07-13T09:32:22.913Z,17.17
2018-07-13T09:34:54.566Z,18.20
2018-07-13T09:37:25.927Z,17.13
2018-07-13T09:39:57.094Z,18.10
2018-07-13T09:42:29.312Z,16.07
2018-07-13T09:45:01.303Z,17.27
2018-07-13T09:47:32.638Z,15.90
2018-07-13T09:50:03.748Z,16.73
2018-07-13T09:52:35.883Z,15.50
2018-07-13T09:55:07.341Z,15.80
2018-07-13T09:57:38.396Z,16.13
2018-07-13T10:00:11.433Z,15.57
2018-07-13T10:02:42.632Z,15.57
2018-07-13T10:05:13.964Z,15.70
2018-07-13T10:07:45.269Z,15.93
2018-07-13T10:10:16.692Z,14.40
2018-07-13T10:12:51.456Z,15.03
2018-07-13T10:15:23.574Z,15.57
2018-07-13T10:17:55.003Z,15.50
2018-07-13T10:20:26.576Z,15.83
2018-07-13T10:22:57.876Z,16.13
2018-07-13T10:25:31.887Z,16.00
2018-07-13T10:28:03.437Z,15.20
2018-07-13T10:30:39.483Z,15.07
2018-07-13T10:33:14.169Z,13.90
2018-07-13T10:35:45.679Z,15.17
2018-07-13T10:38:17.456Z,15.57
2018-07-13T10:40:48.616Z,16.40
2018-07-13T10:43:20.499Z,15.73
2018-07-13T10:45:51.796Z,15.20
2018-07-13T10:48:23.207Z,15.70
2018-07-13T10:50:55.644Z,15.03
2018-07-13T10:53:27.855Z,15.23
2018-07-13T10:55:59.159Z,14.73
2018-07-13T10:58:31.641Z,14.57
2018-07-13T11:01:02.940Z,14.30
2018-07-13T11:03:34.347Z,14.50
2018-07-13T11:06:05.650Z,14.50
2018-07-13T11:08:37.870Z,15.30
2018-07-13T11:11:13.950Z,17.67
2018-07-13T11:13:46.074Z,16.73
2018-07-13T11:16:18.208Z,17.90
2018-07-13T11:18:49.171Z,16.77
2018-07-13T11:21:21.926Z,16.17
2018-07-13T11:23:53.275Z,17.77
2018-07-13T11:26:24.717Z,15.97
2018-07-13T11:28:57.668Z,16.57
2018-07-13T11:31:28.929Z,16.73
2018-07-13T11:34:00.513Z,16.53
2018-07-13T11:36:31.679Z,16.63
2018-07-13T11:39:03.109Z,17.53
2018-07-13T11:41:34.646Z,17.20
2018-07-13T11:44:06.042Z,18.53
2018-07-13T11:46:37.267Z,18.47
2018-07-13T11:49:08.810Z,18.57
2018-07-13T11:51:40.023Z,19.53
2018-07-13T11:54:11.339Z,19.67
2018-07-13T11:56:42.479Z,20.97
2018-07-13T11:59:20.279Z,13.67
2018-07-13T12:01:51.563Z,11.93
2018-07-13T12:04:22.983Z,14.50
2018-07-13T12:06:55.323Z,18.33
2018-07-13T12:09:28.337Z,19.97
2018-07-13T12:12:00.407Z,19.33
2018-07-13T12:14:31.797Z,19.40
2018-07-13T12:17:02.937Z,17.67
2018-07-13T12:19:34.156Z,16.93
2018-07-13T12:22:05.751Z,17.60
2018-07-13T12:24:38.642Z,17.00
2018-07-13T12:27:10.571Z,17.23
2018-07-13T12:29:42.747Z,14.50
2018-07-13T12:32:13.991Z,15.93
2018-07-13T12:34:45.652Z,15.67
2018-07-13T12:37:17.328Z,14.67
2018-07-13T12:39:48.562Z,14.43
2018-07-13T12:42:19.863Z,12.50
2018-07-13T12:44:54.215Z,13.13
2018-07-13T12:47:26.303Z,12.70
2018-07-13T12:49:57.999Z,11.23
2018-07-13T12:52:29.257Z,10.40
2018-07-13T12:55:01.328Z,11.43
2018-07-13T12:57:34.016Z,10.07
2018-07-13T13:00:06.303Z,9.63
2018-07-13T13:02:37.503Z,9.03
2018-07-13T13:05:08.995Z,10.43
2018-07-13T13:07:40.319Z,10.47
2018-07-13T13:10:11.567Z,9.50
2018-07-13T13:12:42.911Z,10.70
2018-07-13T13:15:14.670Z,10.80
2018-07-13T13:17:46.030Z,11.10
2018-07-13T13:20:17.435Z,11.00
2018-07-13T13:22:49.930Z,10.63
2018-07-13T13:25:21.936Z,10.10
2018-07-13T13:27:53.357Z,9.50
2018-07-13T13:30:24.724Z,5.57
2018-07-13T13:32:56.442Z,6.17
2018-07-13T13:35:27.841Z,6.17
2018-07-13T13:37:59.546Z,5.77
2018-07-13T13:40:31.108Z,5.27
2018-07-13T13:43:02.997Z,5.30
2018-07-13T13:45:35.800Z,5.83
2018-07-13T13:48:07.171Z,5.07
2018-07-13T13:50:38.925Z,5.10
2018-07-13T13:53:10.548Z,4.70
2018-07-13T13:55:42.030Z,4.90
2018-07-13T13:58:14.661Z,4.47
2018-07-13T14:00:46.330Z,4.97
2018-07-13T14:03:17.241Z,4.83
2018-07-13T14:05:49.026Z,4.20
2018-07-13T14:08:20.284Z,4.83
2018-07-13T14:10:52.586Z,4.97
2018-07-13T14:13:23.765Z,5.30
2018-07-13T14:15:55.384Z,5.00
2018-07-13T14:18:26.555Z,4.80
2018-07-13T14:20:58.843Z,4.97
2018-07-13T14:23:29.971Z,4.97
2018-07-13T14:26:01.236Z,5.20
2018-07-13T14:28:32.537Z,5.50
2018-07-13T14:31:03.659Z,6.27
2018-07-13T14:33:35.350Z,5.93
2018-07-13T14:36:11.803Z,6.33
2018-07-13T14:38:42.834Z,6.23
2018-07-13T14:41:14.034Z,6.60
2018-07-13T14:43:45.204Z,6.60
2018-07-13T14:46:16.810Z,6.17
2018-07-13T14:48:48.329Z,6.27
2018-07-13T14:51:19.665Z,6.67
2018-07-13T14:53:52.312Z,6.80
2018-07-13T14:56:23.316Z,6.40
2018-07-13T14:58:54.624Z,6.63
2018-07-13T15:01:26.760Z,6.97
2018-07-13T15:03:58.150Z,6.63
2018-07-13T15:06:29.772Z,6.27
2018-07-13T15:09:00.967Z,6.83
2018-07-13T15:11:32.090Z,5.80
2018-07-13T15:14:06.568Z,6.53
2018-07-13T15:16:38.503Z,6.20
2018-07-13T15:19:10.818Z,6.77
2018-07-13T15:21:42.897Z,6.40
2018-07-13T15:24:14.368Z,6.30
2018-07-13T15:26:47.259Z,6.53
2018-07-13T15:29:18.784Z,6.70
2018-07-13T15:31:49.861Z,6.30
2018-07-13T15:34:21.311Z,6.33
2018-07-13T15:36:52.518Z,7.30
2018-07-13T15:39:23.486Z,7.70
2018-07-13T15:41:55.528Z,11.63
2018-07-13T15:44:26.801Z,10.50
2018-07-13T15:46:57.782Z,9.53
2018-07-13T15:49:28.965Z,8.13
2018-07-13T15:52:00.082Z,9.20
2018-07-13T15:54:31.387Z,7.83
2018-07-13T15:57:03.723Z,9.03
2018-07-13T15:59:35.095Z,8.23
2018-07-13T16:02:07.284Z,10.40
2018-07-13T16:04:38.433Z,9.70
2018-07-13T16:07:10.215Z,7.20
2018-07-13T16:09:41.241Z,7.20
2018-07-13T16:12:13.821Z,7.33
2018-07-13T16:14:45.061Z,8.67
2018-07-13T16:17:16.356Z,8.00
2018-07-13T16:19:47.449Z,7.60
2018-07-13T16:22:18.999Z,8.23
2018-07-13T16:24:50.250Z,7.90
2018-07-13T16:27:21.553Z,8.67
2018-07-13T16:29:53.895Z,9.90
2018-07-13T16:32:27.389Z,10.20
2018-07-13T16:34:58.664Z,9.50
2018-07-13T16:37:30.692Z,10.20
2018-07-13T16:40:01.808Z,9.50
2018-07-13T16:42:34.315Z,8.70
2018-07-13T16:45:05.546Z,9.90
2018-07-13T16:47:37.990Z,9.27
2018-07-13T16:50:09.199Z,8.20
2018-07-13T16:52:40.657Z,7.80
2018-07-13T16:55:11.765Z,7.97
2018-07-13T16:57:47.709Z,8.13
2018-07-13T17:00:19.066Z,9.77
2018-07-13T17:02:50.259Z,10.57
2018-07-13T17:05:21.433Z,10.33
2018-07-13T17:07:52.699Z,9.40
2018-07-13T17:10:24.335Z,8.90
2018-07-13T17:12:57.275Z,9.60
2018-07-13T17:15:31.772Z,9.90
2018-07-13T17:18:03.285Z,10.43
2018-07-13T17:20:34.942Z,9.40
2018-07-13T17:23:07.069Z,9.10
2018-07-13T17:25:38.423Z,8.37
2018-07-13T17:28:11.562Z,7.23
2018-07-13T17:30:42.651Z,7.10
2018-07-13T17:33:13.567Z,7.00
2018-07-13T17:35:45.390Z,7.03
2018-07-13T17:38:16.504Z,7.37
2018-07-13T17:40:47.673Z,6.83
2018-07-13T17:43:19.635Z,6.80
2018-07-13T17:45:50.953Z,7.43
2018-07-13T17:48:22.758Z,9.43
2018-07-13T17:50:53.786Z,9.97
2018-07-13T17:53:26.879Z,7.83
2018-07-13T17:55:58.259Z,7.43
2018-07-13T17:58:29.414Z,7.30
2018-07-13T18:01:00.538Z,7.70
2018-07-13T18:03:31.625Z,7.70
2018-07-13T18:06:02.774Z,7.53
2018-07-13T18:08:33.945Z,7.20
2018-07-13T18:11:05.182Z,7.23
2018-07-13T18:13:37.781Z,7.60
2018-07-13T18:16:08.959Z,7.70
2018-07-13T18:18:40.133Z,8.00
2018-07-13T18:21:11.983Z,8.10
2018-07-13T18:23:43.304Z,8.40
2018-07-13T18:26:14.500Z,8.70
2018-07-13T18:28:45.975Z,9.30
2018-07-13T18:31:17.272Z,8.10
2018-07-13T18:33:49.722Z,7.80
2018-07-13T18:36:20.995Z,8.40
2018-07-13T18:38:52.384Z,7.43
2018-07-13T18:41:24.010Z,8.67
2018-07-13T18:43:58.832Z,7.50
2018-07-13T18:46:30.474Z,7.30
2018-07-13T18:49:01.661Z,7.80
2018-07-13T18:51:33.256Z,7.70
2018-07-13T18:54:05.409Z,7.30
2018-07-13T18:56:37.533Z,7.47
2018-07-13T18:59:09.032Z,7.87
2018-07-13T19:01:40.606Z,7.83
2018-07-13T19:04:12.316Z,7.70
2018-07-13T19:06:50.859Z,6.97
2018-07-13T19:09:22.484Z,7.60
2018-07-13T19:11:53.655Z,8.33
2018-07-13T19:14:26.581Z,8.10
2018-07-13T19:16:59.025Z,7.80
2018-07-13T19:19:31.089Z,7.60
2018-07-13T19:22:02.380Z,7.90
2018-07-13T19:24:34.001Z,8.40
2018-07-13T19:27:07.129Z,7.83
2018-07-13T19:29:38.876Z,8.33
2018-07-13T19:32:09.973Z,7.70
2018-07-13T19:34:41.536Z,9.03
2018-07-13T19:37:13.882Z,7.50
2018-07-13T19:39:45.218Z,8.40
2018-07-13T19:42:16.761Z,8.20
2018-07-13T19:44:48.235Z,8.00
2018-07-13T19:47:20.867Z,8.23
2018-07-13T19:49:52.452Z,9.07
2018-07-13T19:52:24.309Z,8.23
2018-07-13T19:54:55.955Z,7.80
2018-07-13T19:57:27.463Z,8.00
2018-07-13T19:59:59.612Z,8.20
2018-07-13T20:02:32.364Z,7.90
2018-07-13T20:05:03.964Z,8.77
2018-07-13T20:07:36.013Z,7.90
2018-07-13T20:10:07.512Z,7.90
2018-07-13T20:12:38.723Z,7.47
2018-07-13T20:15:10.110Z,7.77
2018-07-13T20:17:46.251Z,7.60
2018-07-13T20:20:18.075Z,8.90
2018-07-13T20:22:54.238Z,8.50
2018-07-13T20:25:27.327Z,8.63
2018-07-13T20:27:59.587Z,8.60
2018-07-13T20:30:35.855Z,8.87
2018-07-13T20:33:08.493Z,9.13
2018-07-13T20:35:40.396Z,8.03
2018-07-13T20:38:11.746Z,8.70
2018-07-13T20:40:43.490Z,8.10
2018-07-13T20:43:15.077Z,8.03
2018-07-13T20:45:46.705Z,7.70
2018-07-13T20:48:19.411Z,7.90
2018-07-13T20:50:50.842Z,7.97
2018-07-13T20:53:22.289Z,7.90
2018-07-13T20:55:54.062Z,8.00
2018-07-13T20:58:25.399Z,8.33
2018-07-13T21:00:58.636Z,7.67
2018-07-13T21:03:30.437Z,8.30
2018-07-13T21:06:02.555Z,7.93
2018-07-13T21:08:36.077Z,8.70
2018-07-13T21:11:11.964Z,8.43
2018-07-13T21:13:43.836Z,8.13
2018-07-13T21:16:16.179Z,8.23
2018-07-13T21:18:47.431Z,9.23
2018-07-13T21:21:18.959Z,7.90
2018-07-13T21:23:52.112Z,7.70
2018-07-13T21:26:23.504Z,8.10
2018-07-13T21:28:57.173Z,7.60
2018-07-13T21:31:29.045Z,8.33
2018-07-13T21:34:00.655Z,7.50
2018-07-13T21:36:32.762Z,8.20
2018-07-13T21:39:04.112Z,8.87
2018-07-13T21:41:36.166Z,9.30
2018-07-13T21:44:09.571Z,8.77
2018-07-13T21:46:40.798Z,9.00
2018-07-13T21:49:12.826Z,9.33
2018-07-13T21:51:44.185Z,7.73
2018-07-13T21:54:15.601Z,8.20
2018-07-13T21:56:46.882Z,8.40
2018-07-13T21:59:18.563Z,7.17
2018-07-13T22:01:50.126Z,8.17
2018-07-13T22:04:22.303Z,7.73
2018-07-13T22:06:54.277Z,7.70
2018-07-13T22:09:25.482Z,7.90
2018-07-13T22:11:56.931Z,7.70
2018-07-13T22:14:28.350Z,8.80
2018-07-13T22:17:00.474Z,8.20
2018-07-13T22:19:31.552Z,9.67
2018-07-13T22:22:03.859Z,10.90
2018-07-13T22:24:35.131Z,10.43
2018-07-13T22:27:08.285Z,9.60
2018-07-13T22:29:39.556Z,8.60
2018-07-13T22:32:10.564Z,7.23
2018-07-13T22:34:42.193Z,7.13
2018-07-13T22:37:15.340Z,7.10
2018-07-13T22:39:46.675Z,6.90
2018-07-13T22:42:18.202Z,7.10
2018-07-13T22:44:50.213Z,7.60
2018-07-13T22:47:21.466Z,7.63
2018-07-13T22:49:52.767Z,7.27
2018-07-13T22:52:24.078Z,7.70
2018-07-13T22:54:55.221Z,7.10
2018-07-13T22:57:26.321Z,7.10
2018-07-13T22:59:57.383Z,7.33
2018-07-13T23:02:29.590Z,7.57
2018-07-13T23:05:00.585Z,6.80
2018-07-13T23:07:32.043Z,7.30
2018-07-13T23:10:03.171Z,7.60
2018-07-13T23:12:34.363Z,7.90
2018-07-13T23:15:05.617Z,7.00
2018-07-13T23:17:36.848Z,7.20
2018-07-13T23:20:08.075Z,8.13
2018-07-13T23:22:39.148Z,7.43
2018-07-13T23:25:10.379Z,7.50
2018-07-13T23:27:41.839Z,7.30
2018-07-13T23:30:13.036Z,7.90
2018-07-13T23:32:44.349Z,7.23
2018-07-13T23:35:15.533Z,7.13
2018-07-13T23:37:49.385Z,6.67
2018-07-13T23:40:26.656Z,7.80
2018-07-13T23:42:58.202Z,6.70
2018-07-13T23:45:30.481Z,7.83
2018-07-13T23:48:04.970Z,6.90
2018-07-13T23:50:36.985Z,7.60
2018-07-13T23:53:09.238Z,7.50
2018-07-13T23:55:40.554Z,7.63
2018-07-13T23:58:11.898Z,8.67
